createdAt,value
2022-10-14T00:00:18.812Z,-11269.34
2022-10-14T00:03:26.039Z,-11267.09
2022-10-14T00:06:33.526Z,-11263.31
2022-10-14T00:09:40.085Z,-11252.03
2022-10-14T00:12:47.525Z,-11254.84
2022-10-14T00:15:53.847Z,-11251.91
2022-10-14T00:19:01.523Z,-11254.16
2022-10-14T00:22:07.995Z,-11242.31
2022-10-14T00:25:14.350Z,-11238.94
2022-10-14T00:28:20.833Z,-11235.03
2022-10-14T00:31:27.585Z,-11237.28
2022-10-14T00:34:35.280Z,-11240.91
2022-10-14T00:37:41.331Z,-11244.31
2022-10-14T00:40:47.471Z,-11242.31
2022-10-14T00:44:00.527Z,-11249.09
2022-10-14T00:47:06.900Z,-11261.03
2022-10-14T00:50:17.238Z,-11261.75
2022-10-14T00:53:23.697Z,-11263.72
2022-10-14T00:56:31.039Z,-11263.16
2022-10-14T00:59:37.294Z,-11268.50
2022-10-14T01:02:44.167Z,-11264.84
2022-10-14T01:05:59.714Z,-11263.88
2022-10-14T01:09:14.574Z,-11268.09
2022-10-14T01:12:29.949Z,-11268.22
2022-10-14T01:15:42.378Z,-11263.31
2022-10-14T01:19:01.883Z,-11263.31
2022-10-14T01:22:22.162Z,-11262.31
2022-10-14T01:25:34.762Z,-11254.44
2022-10-14T01:28:48.290Z,-11262.59
2022-10-14T01:32:02.879Z,-11257.81
2022-10-14T01:35:14.987Z,-11257.81
2022-10-14T01:38:25.759Z,-11260.63
2022-10-14T01:41:36.791Z,-11258.66
2022-10-14T01:44:48.697Z,-11264.00
2022-10-14T01:47:56.688Z,-11267.09
2022-10-14T01:51:06.365Z,-11265.28
2022-10-14T01:54:16.387Z,-11263.59
2022-10-14T01:57:28.041Z,-11258.94
2022-10-14T02:00:34.092Z,-11258.09
2022-10-14T02:03:43.672Z,-11260.91
2022-10-14T02:06:55.715Z,-11256.53
2022-10-14T02:10:13.660Z,-11257.66
2022-10-14T02:13:31.175Z,-11249.37
2022-10-14T02:16:41.729Z,-11249.37
2022-10-14T02:19:53.874Z,-11253.72
2022-10-14T02:23:03.879Z,-11239.78
2022-10-14T02:26:11.291Z,-11251.19
2022-10-14T02:29:19.905Z,-11245.84
2022-10-14T02:32:29.368Z,-11249.94
2022-10-14T02:35:40.236Z,-11246.00
2022-10-14T02:38:48.793Z,-11250.06
2022-10-14T02:41:55.091Z,-11250.22
2022-10-14T02:45:03.527Z,-11255.28
2022-10-14T02:48:10.132Z,-11255.00
2022-10-14T02:51:17.920Z,-11247.97
2022-10-14T02:54:24.241Z,-11240.34
2022-10-14T02:57:30.562Z,-11244.59
2022-10-14T03:00:37.284Z,-11253.31
2022-10-14T03:03:43.367Z,-11252.75
2022-10-14T03:06:51.264Z,-11251.06
2022-10-14T03:09:58.441Z,-11241.47
2022-10-14T03:13:04.536Z,-11248.53
2022-10-14T03:16:10.765Z,-11250.34
2022-10-14T03:19:17.075Z,-11253.31
2022-10-14T03:22:24.747Z,-11253.44
2022-10-14T03:25:31.038Z,-11250.78
2022-10-14T03:28:37.278Z,-11254.16
2022-10-14T03:31:43.350Z,-11259.50
2022-10-14T03:34:49.272Z,-11261.19
2022-10-14T03:37:56.939Z,-11260.63
2022-10-14T03:41:02.845Z,-11259.22
2022-10-14T03:44:09.132Z,-11255.56
2022-10-14T03:47:15.448Z,-11257.53
2022-10-14T03:50:21.818Z,-11251.47
2022-10-14T03:53:29.673Z,-11251.47
2022-10-14T03:56:35.877Z,-11244.59
2022-10-14T03:59:42.414Z,-11253.03
2022-10-14T04:02:48.552Z,-11249.37
2022-10-14T04:05:55.123Z,-11249.37
2022-10-14T04:09:03.374Z,-11254.00
2022-10-14T04:12:09.665Z,-11251.63
2022-10-14T04:15:16.194Z,-11251.91
2022-10-14T04:18:22.466Z,-11241.19
2022-10-14T04:21:28.922Z,-11251.34
2022-10-14T04:24:36.684Z,-11249.94
2022-10-14T04:27:43.003Z,-11249.78
2022-10-14T04:30:49.460Z,-11248.81
2022-10-14T04:33:55.875Z,-11240.91
2022-10-14T04:37:02.106Z,-11245.44
2022-10-14T04:40:10.781Z,-11246.00
2022-10-14T04:43:17.098Z,-11243.88
2022-10-14T04:46:23.487Z,-11244.31
2022-10-14T04:49:30.048Z,-11242.59
2022-10-14T04:52:36.169Z,-11245.44
2022-10-14T04:55:45.598Z,-11243.75
2022-10-14T04:58:51.964Z,-11250.06
2022-10-14T05:01:58.407Z,-11241.63
2022-10-14T05:05:05.311Z,-11245.28
2022-10-14T05:08:11.804Z,-11247.25
2022-10-14T05:11:19.763Z,-11241.91
2022-10-14T05:14:26.205Z,-11244.59
2022-10-14T05:17:32.581Z,-11247.13
2022-10-14T05:20:39.037Z,-11250.22
2022-10-14T05:23:45.437Z,-11240.06
2022-10-14T05:26:52.575Z,-11241.19
2022-10-14T05:29:58.589Z,-11245.56
2022-10-14T05:33:04.724Z,-11240.50
2022-10-14T05:36:11.406Z,-11237.84
2022-10-14T05:39:17.752Z,-11245.84
2022-10-14T05:42:25.525Z,-11244.44
2022-10-14T05:45:31.958Z,-11251.91
2022-10-14T05:48:38.283Z,-11247.69
2022-10-14T05:51:44.550Z,-11257.81
2022-10-14T05:54:50.960Z,-11259.78
2022-10-14T05:57:59.609Z,-11262.88
2022-10-14T06:01:08.232Z,-11254.56
2022-10-14T06:04:18.954Z,-11258.66
2022-10-14T06:07:25.224Z,-11258.09
2022-10-14T06:10:31.754Z,-11259.50
2022-10-14T06:13:39.830Z,-11257.66
2022-10-14T06:16:45.851Z,-11247.69
2022-10-14T06:19:52.196Z,-11265.97
2022-10-14T06:23:00.088Z,-11260.47
2022-10-14T06:26:07.648Z,-11258.38
2022-10-14T06:29:15.411Z,-11253.88
2022-10-14T06:32:21.858Z,-11253.88
2022-10-14T06:35:28.883Z,-11259.78
2022-10-14T06:38:35.396Z,-11261.47
2022-10-14T06:41:41.815Z,-11259.22
2022-10-14T06:44:49.428Z,-11271.88
2022-10-14T06:47:55.648Z,-11276.25
2022-10-14T06:51:02.759Z,-11279.91
2022-10-14T06:54:09.295Z,-11281.31
2022-10-14T06:57:15.539Z,-11282.84
2022-10-14T07:00:23.514Z,-11285.25
2022-10-14T07:03:30.578Z,-11290.47
2022-10-14T07:06:38.359Z,-11293.56
2022-10-14T07:09:44.601Z,-11284.56
2022-10-14T07:12:50.643Z,-11282.84
2022-10-14T07:15:58.199Z,-11287.63
2022-10-14T07:19:04.378Z,-11287.34
2022-10-14T07:22:10.535Z,-11284.97
2022-10-14T07:25:17.139Z,-11275.53
2022-10-14T07:28:23.166Z,-11293.41
2022-10-14T07:31:31.044Z,-11287.06
2022-10-14T07:34:37.039Z,-11285.41
2022-10-14T07:37:43.347Z,-11291.88
2022-10-14T07:40:58.864Z,-11290.47
2022-10-14T07:44:09.091Z,-11290.19
2022-10-14T07:47:17.339Z,-11293.56
2022-10-14T07:50:23.720Z,-11296.78
2022-10-14T07:53:30.237Z,-11289.06
2022-10-14T07:56:36.851Z,-11294.41
2022-10-14T07:59:42.840Z,-11299.47
2022-10-14T08:02:50.387Z,-11295.94
2022-10-14T08:06:05.090Z,-11285.69
2022-10-14T08:09:13.055Z,-11296.22
2022-10-14T08:12:19.829Z,-11283.84
2022-10-14T08:15:28.658Z,-11286.22
2022-10-14T08:18:36.452Z,-11285.41
2022-10-14T08:21:43.411Z,-11289.06
2022-10-14T08:24:50.222Z,-11297.50
2022-10-14T08:27:57.664Z,-11295.25
2022-10-14T08:31:04.079Z,-11298.06
2022-10-14T08:34:11.985Z,-11299.63
2022-10-14T08:37:18.068Z,-11298.19
2022-10-14T08:40:24.669Z,-11299.75
2022-10-14T08:43:34.827Z,-11301.03
2022-10-14T08:46:49.433Z,-11297.91
2022-10-14T08:50:04.265Z,-11300.75
2022-10-14T08:53:15.922Z,-11299.75
2022-10-14T08:56:22.482Z,-11296.66
2022-10-14T08:59:29.146Z,-11296.09
2022-10-14T09:02:43.292Z,-11295.81
2022-10-14T09:06:01.422Z,-11294.69
2022-10-14T09:09:10.331Z,-11289.63
2022-10-14T09:12:20.413Z,-11296.38
2022-10-14T09:15:33.130Z,-11286.94
2022-10-14T09:18:43.510Z,-11299.19
2022-10-14T09:21:54.523Z,-11290.88
2022-10-14T09:25:01.327Z,-11300.59
2022-10-14T09:28:07.494Z,-11303.13
2022-10-14T09:31:15.784Z,-11302.16
2022-10-14T09:34:31.245Z,-11295.66
2022-10-14T09:37:39.516Z,-11295.25
2022-10-14T09:40:49.171Z,-11295.53
2022-10-14T09:44:19.931Z,-11310.88
2022-10-14T09:47:26.137Z,-11311.00
2022-10-14T09:50:36.603Z,-11312.56
2022-10-14T09:53:48.718Z,-11315.81
2022-10-14T09:57:07.436Z,-11312.13
2022-10-14T10:00:27.371Z,-11310.44
2022-10-14T10:03:35.765Z,-11310.44
2022-10-14T10:06:53.977Z,-11310.59
2022-10-14T10:10:04.360Z,-11305.66
2022-10-14T10:13:32.744Z,-11305.53
2022-10-14T10:16:39.113Z,-11307.91
2022-10-14T10:19:47.496Z,-11310.44
2022-10-14T10:22:53.763Z,-11305.09
2022-10-14T10:26:16.752Z,-11311.16
2022-10-14T10:29:29.191Z,-11308.34
2022-10-14T10:32:42.616Z,-11309.59
2022-10-14T10:36:08.235Z,-11305.38
2022-10-14T10:39:25.102Z,-11304.13
2022-10-14T10:42:40.742Z,-11304.69
2022-10-14T10:46:01.765Z,-11304.53
2022-10-14T10:49:20.015Z,-11303.69
2022-10-14T10:52:37.805Z,-11305.94
2022-10-14T10:55:55.025Z,-11304.53
2022-10-14T10:59:39.822Z,-11303.28
2022-10-14T11:03:01.862Z,-11303.56
2022-10-14T11:06:36.082Z,-11304.25
2022-10-14T11:10:06.523Z,-11298.91
2022-10-14T11:13:22.579Z,-11298.34
2022-10-14T11:16:41.045Z,-11299.19
2022-10-14T11:19:55.236Z,-11304.69
2022-10-14T11:23:30.322Z,-11305.66
2022-10-14T11:27:00.797Z,-11294.69
2022-10-14T11:30:18.592Z,-11302.16
2022-10-14T11:33:39.841Z,-11296.66
2022-10-14T11:36:58.419Z,-11301.59
2022-10-14T11:40:16.557Z,-11305.09
2022-10-14T11:43:32.386Z,-11300.03
2022-10-14T11:46:42.495Z,-11289.34
2022-10-14T11:49:57.519Z,-11284.00
2022-10-14T11:53:14.491Z,-11281.16
2022-10-14T11:56:30.460Z,-11275.13
2022-10-14T11:59:43.465Z,-11274.00
2022-10-14T12:02:57.185Z,-11272.72
2022-10-14T12:06:10.790Z,-11268.50
2022-10-14T12:09:26.467Z,-11266.97
2022-10-14T12:12:37.766Z,-11264.44
2022-10-14T12:15:51.554Z,-11271.03
2022-10-14T12:18:58.834Z,-11269.34
2022-10-14T12:22:15.607Z,-11268.50
2022-10-14T12:25:27.630Z,-11269.63
2022-10-14T12:28:35.590Z,-11265.97
2022-10-14T12:31:41.892Z,-11267.38
2022-10-14T12:34:49.776Z,-11264.84
2022-10-14T12:38:04.725Z,-11268.50
2022-10-14T12:41:43.758Z,-11265.97
2022-10-14T12:44:54.077Z,-11265.97
2022-10-14T12:48:16.667Z,-11258.50
2022-10-14T12:51:25.191Z,-11264.72
2022-10-14T12:54:32.919Z,-11267.66
2022-10-14T12:57:42.289Z,-11265.41
2022-10-14T13:00:56.049Z,-11268.38
2022-10-14T13:04:05.214Z,-11265.84
2022-10-14T13:07:40.080Z,-11256.41
2022-10-14T13:10:48.591Z,-11256.97
2022-10-14T13:14:03.307Z,-11250.91
2022-10-14T13:17:31.803Z,-11253.59
2022-10-14T13:20:54.263Z,-11257.81
2022-10-14T13:24:02.938Z,-11245.44
2022-10-14T13:27:21.037Z,-11247.13
2022-10-14T13:30:36.807Z,-11242.59
2022-10-14T13:33:48.919Z,-11245.72
2022-10-14T13:37:21.838Z,-11237.56
2022-10-14T13:40:31.815Z,-11234.19
2022-10-14T13:43:42.416Z,-11238.94
2022-10-14T13:46:51.659Z,-11232.19
2022-10-14T13:49:58.163Z,-11226.56
2022-10-14T13:53:10.476Z,-11229.09
2022-10-14T13:56:23.096Z,-11235.31
2022-10-14T13:59:43.718Z,-11223.75
2022-10-14T14:02:56.695Z,-11230.94
2022-10-14T14:06:12.366Z,-11223.47
2022-10-14T14:09:22.995Z,-11224.59
2022-10-14T14:12:29.741Z,-11219.81
2022-10-14T14:15:37.767Z,-11220.94
2022-10-14T14:19:04.010Z,-11221.38
2022-10-14T14:22:19.429Z,-11223.47
2022-10-14T14:25:34.386Z,-11227.13
2022-10-14T14:28:41.135Z,-11224.31
2022-10-14T14:32:05.569Z,-11225.16
2022-10-14T14:35:17.057Z,-11228.13
2022-10-14T14:38:27.698Z,-11224.03
2022-10-14T14:41:34.327Z,-11227.41
2022-10-14T14:44:43.560Z,-11224.59
2022-10-14T14:47:51.331Z,-11225.88
2022-10-14T14:51:01.105Z,-11225.44
2022-10-14T14:54:08.858Z,-11217.00
2022-10-14T14:57:19.952Z,-11217.28
2022-10-14T15:00:26.664Z,-11220.66
2022-10-14T15:03:35.722Z,-11219.53
2022-10-14T15:06:51.312Z,-11221.78
2022-10-14T15:10:00.828Z,-11217.56
2022-10-14T15:13:25.533Z,-11213.34
2022-10-14T15:16:36.598Z,-11217.00
2022-10-14T15:19:42.726Z,-11219.97
2022-10-14T15:22:51.852Z,-11220.09
2022-10-14T15:25:59.420Z,-11220.09
2022-10-14T15:32:30.470Z,-11215.19
2022-10-14T15:35:37.280Z,-11216.72
2022-10-14T15:38:44.875Z,-11214.34
2022-10-14T15:41:51.214Z,-11215.88
2022-10-14T15:44:57.835Z,-11211.09
2022-10-14T15:48:07.603Z,-11215.03
2022-10-14T15:51:17.421Z,-11209.13
2022-10-14T15:54:27.717Z,-11209.41
2022-10-14T15:57:33.958Z,-11217.72
2022-10-14T16:00:40.682Z,-11215.88
2022-10-14T16:03:46.751Z,-11215.31
2022-10-14T16:06:55.308Z,-11213.34
2022-10-14T16:10:02.695Z,-11215.31
2022-10-14T16:13:08.519Z,-11209.97
2022-10-14T16:16:16.786Z,-11203.09
2022-10-14T16:19:22.807Z,-11200.97
2022-10-14T16:22:29.269Z,-11196.19
2022-10-14T16:25:39.889Z,-11204.50
2022-10-14T16:28:45.743Z,-11193.66
2022-10-14T16:31:53.902Z,-11190.28
2022-10-14T16:35:00.465Z,-11190.00
2022-10-14T16:38:06.693Z,-11200.84
2022-10-14T16:41:14.819Z,-11197.19
2022-10-14T16:44:27.623Z,-11199.16
2022-10-14T16:47:33.890Z,-11197.03
2022-10-14T16:50:40.240Z,-11208.56
2022-10-14T16:53:48.946Z,-11206.31
2022-10-14T16:56:57.047Z,-11204.78
2022-10-14T17:00:03.698Z,-11208.28
2022-10-14T17:03:10.555Z,-11210.13
2022-10-14T17:06:21.704Z,-11207.72
2022-10-14T17:09:30.423Z,-11207.59
2022-10-14T17:12:38.207Z,-11208.84
2022-10-14T17:15:44.652Z,-11197.88
2022-10-14T17:18:51.437Z,-11208.00
2022-10-14T17:21:57.644Z,-11207.44
2022-10-14T17:25:03.901Z,-11212.94
2022-10-14T17:28:12.916Z,-11200.97
2022-10-14T17:31:20.698Z,-11210.53
2022-10-14T17:34:26.972Z,-11210.81
2022-10-14T17:37:33.338Z,-11208.00
2022-10-14T17:40:39.588Z,-11204.63
2022-10-14T17:43:49.543Z,-11209.00
2022-10-14T17:46:57.005Z,-11204.06
2022-10-14T17:50:03.015Z,-11202.94
2022-10-14T17:53:12.004Z,-11202.94
2022-10-14T17:56:18.430Z,-11197.88
2022-10-14T17:59:26.079Z,-11204.34
2022-10-14T18:02:32.136Z,-11197.75
2022-10-14T18:05:39.624Z,-11199.00
2022-10-14T18:08:47.473Z,-11203.22
2022-10-14T18:12:08.236Z,-11197.03
2022-10-14T18:15:16.921Z,-11197.88
2022-10-14T18:18:23.431Z,-11203.50
2022-10-14T18:21:30.138Z,-11195.91
2022-10-14T18:24:38.484Z,-11189.16
2022-10-14T18:27:45.145Z,-11196.34
2022-10-14T18:30:52.469Z,-11201.97
2022-10-14T18:34:00.812Z,-11200.69
2022-10-14T18:37:06.655Z,-11203.78
2022-10-14T18:40:14.721Z,-11195.63
2022-10-14T18:43:20.711Z,-11190.72
2022-10-14T18:46:30.475Z,-11204.63
2022-10-14T18:49:39.926Z,-11206.59
2022-10-14T18:52:46.626Z,-11208.72
2022-10-14T18:55:56.707Z,-11208.44
2022-10-14T18:59:09.272Z,-11207.59
2022-10-14T19:02:17.081Z,-11209.69
2022-10-14T19:05:23.635Z,-11207.44
2022-10-14T19:08:30.236Z,-11208.72
2022-10-14T19:11:36.411Z,-11209.41
2022-10-14T19:14:43.511Z,-11210.97
2022-10-14T19:17:54.533Z,-11209.41
2022-10-14T19:21:09.202Z,-11212.50
2022-10-14T19:24:17.168Z,-11206.88
2022-10-14T19:27:23.565Z,-11212.09
2022-10-14T19:30:30.231Z,-11205.75
2022-10-14T19:33:39.148Z,-11211.25
2022-10-14T19:36:46.439Z,-11208.84
2022-10-14T19:39:52.544Z,-11211.81
2022-10-14T19:42:58.927Z,-11199.56
2022-10-14T19:46:09.659Z,-11214.06
2022-10-14T19:49:17.985Z,-11215.59
2022-10-14T19:52:23.946Z,-11203.94
2022-10-14T19:55:30.191Z,-11210.25
2022-10-14T19:58:38.606Z,-11206.19
2022-10-14T20:01:47.553Z,-11211.66
2022-10-14T20:04:54.835Z,-11208.00
2022-10-14T20:08:02.006Z,-11196.47
2022-10-14T20:11:10.452Z,-11204.91
2022-10-14T20:14:18.719Z,-11210.25
2022-10-14T20:17:25.042Z,-11208.84
2022-10-14T20:20:32.476Z,-11209.28
2022-10-14T20:23:39.296Z,-11210.53
2022-10-14T20:26:45.402Z,-11210.97
2022-10-14T20:29:51.787Z,-11215.47
2022-10-14T20:32:57.876Z,-11213.91
2022-10-14T20:36:07.254Z,-11213.22
2022-10-14T20:39:13.257Z,-11214.91
2022-10-14T20:42:19.570Z,-11216.16
2022-10-14T20:45:25.879Z,-11221.94
2022-10-14T20:48:32.587Z,-11209.69
2022-10-14T20:51:41.254Z,-11218.41
2022-10-14T20:54:47.333Z,-11214.75
2022-10-14T20:57:53.773Z,-11217.00
2022-10-14T21:01:10.860Z,-11218.97
2022-10-14T21:04:17.104Z,-11211.53
2022-10-14T21:07:25.213Z,-11215.75
2022-10-14T21:10:31.594Z,-11219.53
2022-10-14T21:13:37.624Z,-11217.28
2022-10-14T21:16:43.875Z,-11217.84
2022-10-14T21:19:50.327Z,-11210.81
2022-10-14T21:22:58.338Z,-11205.19
2022-10-14T21:26:04.418Z,-11212.50
2022-10-14T21:29:11.727Z,-11217.44
2022-10-14T21:32:17.963Z,-11219.25
2022-10-14T21:35:24.388Z,-11212.50
2022-10-14T21:38:32.163Z,-11213.91
2022-10-14T21:41:39.489Z,-11216.44
2022-10-14T21:44:45.540Z,-11218.41
2022-10-14T21:47:53.527Z,-11211.09
2022-10-14T21:51:04.079Z,-11214.75
2022-10-14T21:54:12.879Z,-11218.00
2022-10-14T21:57:19.055Z,-11219.53
2022-10-14T22:00:25.420Z,-11211.38
2022-10-14T22:03:31.719Z,-11202.38
2022-10-14T22:06:38.137Z,-11196.91
2022-10-14T22:09:45.392Z,-11204.78
2022-10-14T22:12:51.476Z,-11207.72
2022-10-14T22:15:58.345Z,-11213.91
2022-10-14T22:19:06.425Z,-11205.47
2022-10-14T22:22:12.560Z,-11217.16
2022-10-14T22:25:20.323Z,-11215.03
2022-10-14T22:28:26.381Z,-11207.72
2022-10-14T22:31:34.055Z,-11209.97
2022-10-14T22:34:40.289Z,-11215.31
2022-10-14T22:37:46.478Z,-11219.25
2022-10-14T22:40:53.696Z,-11203.22
2022-10-14T22:44:00.354Z,-11206.88
2022-10-14T22:47:06.591Z,-11210.41
2022-10-14T22:50:12.675Z,-11209.84
2022-10-14T22:53:19.047Z,-11208.56
2022-10-14T22:56:28.658Z,-11205.63
2022-10-14T22:59:35.022Z,-11207.72
2022-10-14T23:02:41.301Z,-11214.06
2022-10-14T23:05:47.963Z,-11211.66
2022-10-14T23:08:54.454Z,-11212.66
2022-10-14T23:12:02.382Z,-11212.22
2022-10-14T23:15:09.870Z,-11208.84
2022-10-14T23:18:16.253Z,-11216.59
2022-10-14T23:21:24.313Z,-11210.25
2022-10-14T23:24:30.338Z,-11218.56
2022-10-14T23:27:37.916Z,-11217.00
2022-10-14T23:30:44.210Z,-11216.72
2022-10-14T23:33:52.342Z,-11218.13
2022-10-14T23:36:58.607Z,-11208.00
2022-10-14T23:40:04.977Z,-11208.84
2022-10-14T23:43:12.599Z,-11211.66
2022-10-14T23:46:19.426Z,-11214.75
2022-10-14T23:49:26.450Z,-11219.81
2022-10-14T23:52:32.562Z,-11224.31
2022-10-14T23:55:38.776Z,-11220.09
2022-10-14T23:58:46.330Z,-11225.03
